sensor_id;sensor_type;location;lat;lon;timestamp;temperature;humidity
12901;DHT22;6518;50.930;5.344;2022-12-08T00:01:21;5.30;99.90
12901;DHT22;6518;50.930;5.344;2022-12-08T00:03:48;5.30;99.90
12901;DHT22;6518;50.930;5.344;2022-12-08T00:06:22;5.30;99.90
12901;DHT22;6518;50.930;5.344;2022-12-08T00:09:12;5.30;99.90
12901;DHT22;6518;50.930;5.344;2022-12-08T00:11:54;5.30;99.90
12901;DHT22;6518;50.930;5.344;2022-12-08T00:14:28;5.30;99.90
12901;DHT22;6518;50.930;5.344;2022-12-08T00:16:55;5.30;99.90
12901;DHT22;6518;50.930;5.344;2022-12-08T00:19:23;5.30;99.90
12901;DHT22;6518;50.930;5.344;2022-12-08T00:21:50;5.30;99.90
12901;DHT22;6518;50.930;5.344;2022-12-08T00:24:18;5.30;99.90
12901;DHT22;6518;50.930;5.344;2022-12-08T00:26:45;5.30;99.90
12901;DHT22;6518;50.930;5.344;2022-12-08T00:29:12;5.30;99.90
12901;DHT22;6518;50.930;5.344;2022-12-08T00:31:41;5.30;99.90
12901;DHT22;6518;50.930;5.344;2022-12-08T00:34:08;5.30;99.90
12901;DHT22;6518;50.930;5.344;2022-12-08T00:36:35;5.30;99.90
12901;DHT22;6518;50.930;5.344;2022-12-08T00:39:02;5.30;99.90
12901;DHT22;6518;50.930;5.344;2022-12-08T00:41:29;5.40;99.90
12901;DHT22;6518;50.930;5.344;2022-12-08T00:44:14;5.40;99.90
12901;DHT22;6518;50.930;5.344;2022-12-08T00:46:45;5.30;99.90
12901;DHT22;6518;50.930;5.344;2022-12-08T00:49:12;5.40;99.90
12901;DHT22;6518;50.930;5.344;2022-12-08T00:51:40;5.30;99.90
12901;DHT22;6518;50.930;5.344;2022-12-08T00:54:07;5.40;99.90
12901;DHT22;6518;50.930;5.344;2022-12-08T00:56:34;5.40;99.90
12901;DHT22;6518;50.930;5.344;2022-12-08T00:59:02;5.40;99.90
12901;DHT22;6518;50.930;5.344;2022-12-08T01:01:29;5.40;99.90
12901;DHT22;6518;50.930;5.344;2022-12-08T01:03:59;5.40;99.90
12901;DHT22;6518;50.930;5.344;2022-12-08T01:06:28;5.40;99.90
12901;DHT22;6518;50.930;5.344;2022-12-08T01:08:54;5.40;99.90
12901;DHT22;6518;50.930;5.344;2022-12-08T01:11:21;5.30;99.90
12901;DHT22;6518;50.930;5.344;2022-12-08T01:13:48;5.30;99.90
12901;DHT22;6518;50.930;5.344;2022-12-08T01:16:19;5.20;99.90
12901;DHT22;6518;50.930;5.344;2022-12-08T01:18:46;5.20;99.90
12901;DHT22;6518;50.930;5.344;2022-12-08T01:21:14;5.20;99.90
12901;DHT22;6518;50.930;5.344;2022-12-08T01:23:41;5.30;99.90
12901;DHT22;6518;50.930;5.344;2022-12-08T01:26:09;5.30;99.90
12901;DHT22;6518;50.930;5.344;2022-12-08T01:28:37;5.30;99.90
12901;DHT22;6518;50.930;5.344;2022-12-08T01:31:08;5.30;99.90
12901;DHT22;6518;50.930;5.344;2022-12-08T01:33:36;5.20;99.90
12901;DHT22;6518;50.930;5.344;2022-12-08T01:36:03;5.30;99.90
12901;DHT22;6518;50.930;5.344;2022-12-08T01:38:32;5.20;99.90
12901;DHT22;6518;50.930;5.344;2022-12-08T01:40:59;5.30;99.90
12901;DHT22;6518;50.930;5.344;2022-12-08T01:46:26;5.20;99.90
12901;DHT22;6518;50.930;5.344;2022-12-08T01:49:00;5.30;99.90
12901;DHT22;6518;50.930;5.344;2022-12-08T01:51:28;5.30;99.90
12901;DHT22;6518;50.930;5.344;2022-12-08T01:53:57;5.30;99.90
12901;DHT22;6518;50.930;5.344;2022-12-08T01:56:30;5.30;99.90
12901;DHT22;6518;50.930;5.344;2022-12-08T01:58:58;5.30;99.90
12901;DHT22;6518;50.930;5.344;2022-12-08T02:01:25;5.30;99.90
12901;DHT22;6518;50.930;5.344;2022-12-08T02:03:56;5.30;99.90
12901;DHT22;6518;50.930;5.344;2022-12-08T02:06:25;5.30;99.90
12901;DHT22;6518;50.930;5.344;2022-12-08T02:08:52;5.30;99.90
12901;DHT22;6518;50.930;5.344;2022-12-08T02:11:21;5.30;99.90
12901;DHT22;6518;50.930;5.344;2022-12-08T02:13:49;5.30;99.90
12901;DHT22;6518;50.930;5.344;2022-12-08T02:16:30;5.30;99.90
12901;DHT22;6518;50.930;5.344;2022-12-08T02:19:08;5.30;99.90
12901;DHT22;6518;50.930;5.344;2022-12-08T02:21:45;5.30;99.90
12901;DHT22;6518;50.930;5.344;2022-12-08T02:24:18;5.20;99.90
12901;DHT22;6518;50.930;5.344;2022-12-08T02:30:21;5.20;99.90
12901;DHT22;6518;50.930;5.344;2022-12-08T02:33:27;5.20;99.90
12901;DHT22;6518;50.930;5.344;2022-12-08T02:35:59;5.20;99.90
12901;DHT22;6518;50.930;5.344;2022-12-08T02:38:45;5.20;99.90
12901;DHT22;6518;50.930;5.344;2022-12-08T02:41:22;5.20;99.90
12901;DHT22;6518;50.930;5.344;2022-12-08T02:43:57;5.20;99.90
12901;DHT22;6518;50.930;5.344;2022-12-08T02:46:30;5.20;99.90
12901;DHT22;6518;50.930;5.344;2022-12-08T02:48:59;5.20;99.90
12901;DHT22;6518;50.930;5.344;2022-12-08T02:51:27;5.20;99.90
12901;DHT22;6518;50.930;5.344;2022-12-08T02:53:54;5.20;99.90
12901;DHT22;6518;50.930;5.344;2022-12-08T02:56:39;5.20;99.90
12901;DHT22;6518;50.930;5.344;2022-12-08T02:59:27;5.20;99.90
12901;DHT22;6518;50.930;5.344;2022-12-08T03:02:08;5.20;99.90
12901;DHT22;6518;50.930;5.344;2022-12-08T03:04:44;5.10;99.90
12901;DHT22;6518;50.930;5.344;2022-12-08T03:07:18;5.10;99.90
12901;DHT22;6518;50.930;5.344;2022-12-08T03:09:50;5.10;99.90
12901;DHT22;6518;50.930;5.344;2022-12-08T03:12:25;5.10;99.90
12901;DHT22;6518;50.930;5.344;2022-12-08T03:14:56;5.10;99.90
12901;DHT22;6518;50.930;5.344;2022-12-08T03:17:27;5.10;99.90
12901;DHT22;6518;50.930;5.344;2022-12-08T03:19:57;5.10;99.90
12901;DHT22;6518;50.930;5.344;2022-12-08T03:22:28;5.10;99.90
12901;DHT22;6518;50.930;5.344;2022-12-08T03:24:56;5.10;99.90
12901;DHT22;6518;50.930;5.344;2022-12-08T03:27:26;5.00;99.90
12901;DHT22;6518;50.930;5.344;2022-12-08T03:29:56;5.00;99.90
12901;DHT22;6518;50.930;5.344;2022-12-08T03:32:29;5.00;99.90
12901;DHT22;6518;50.930;5.344;2022-12-08T03:34:59;5.00;99.90
12901;DHT22;6518;50.930;5.344;2022-12-08T03:37:28;5.10;99.90
12901;DHT22;6518;50.930;5.344;2022-12-08T03:39:55;5.10;99.90
12901;DHT22;6518;50.930;5.344;2022-12-08T03:42:22;5.00;99.90
12901;DHT22;6518;50.930;5.344;2022-12-08T03:44:48;5.10;99.90
12901;DHT22;6518;50.930;5.344;2022-12-08T03:47:15;5.00;99.90
12901;DHT22;6518;50.930;5.344;2022-12-08T03:49:42;5.10;99.90
12901;DHT22;6518;50.930;5.344;2022-12-08T03:52:09;5.10;99.90
12901;DHT22;6518;50.930;5.344;2022-12-08T03:54:37;5.10;99.90
12901;DHT22;6518;50.930;5.344;2022-12-08T03:57:04;5.10;99.90
12901;DHT22;6518;50.930;5.344;2022-12-08T03:59:31;5.00;99.90
12901;DHT22;6518;50.930;5.344;2022-12-08T04:01:58;5.00;99.90
12901;DHT22;6518;50.930;5.344;2022-12-08T04:04:25;5.00;99.90
12901;DHT22;6518;50.930;5.344;2022-12-08T04:06:52;5.10;99.90
12901;DHT22;6518;50.930;5.344;2022-12-08T04:09:18;5.00;99.90
12901;DHT22;6518;50.930;5.344;2022-12-08T04:11:47;5.00;99.90
12901;DHT22;6518;50.930;5.344;2022-12-08T04:14:14;5.00;99.90
12901;DHT22;6518;50.930;5.344;2022-12-08T04:16:40;5.00;99.90
12901;DHT22;6518;50.930;5.344;2022-12-08T04:19:07;4.90;99.90
12901;DHT22;6518;50.930;5.344;2022-12-08T04:21:34;5.00;99.90
12901;DHT22;6518;50.930;5.344;2022-12-08T04:24:01;5.00;99.90
12901;DHT22;6518;50.930;5.344;2022-12-08T04:26:28;5.00;99.90
12901;DHT22;6518;50.930;5.344;2022-12-08T04:28:56;5.00;99.90
12901;DHT22;6518;50.930;5.344;2022-12-08T04:31:23;5.00;99.90
12901;DHT22;6518;50.930;5.344;2022-12-08T04:33:50;5.00;99.90
12901;DHT22;6518;50.930;5.344;2022-12-08T04:36:16;5.00;99.90
12901;DHT22;6518;50.930;5.344;2022-12-08T04:38:43;5.00;99.90
12901;DHT22;6518;50.930;5.344;2022-12-08T04:41:10;4.90;99.90
12901;DHT22;6518;50.930;5.344;2022-12-08T04:43:37;4.90;99.90
12901;DHT22;6518;50.930;5.344;2022-12-08T04:46:06;4.90;99.90
12901;DHT22;6518;50.930;5.344;2022-12-08T04:48:35;4.90;99.90
12901;DHT22;6518;50.930;5.344;2022-12-08T04:51:03;4.90;99.90
12901;DHT22;6518;50.930;5.344;2022-12-08T04:53:30;4.90;99.90
12901;DHT22;6518;50.930;5.344;2022-12-08T04:55:57;4.90;99.90
12901;DHT22;6518;50.930;5.344;2022-12-08T04:58:24;4.80;99.90
12901;DHT22;6518;50.930;5.344;2022-12-08T05:00:50;4.80;99.90
12901;DHT22;6518;50.930;5.344;2022-12-08T05:03:19;4.80;99.90
12901;DHT22;6518;50.930;5.344;2022-12-08T05:05:46;4.70;99.90
12901;DHT22;6518;50.930;5.344;2022-12-08T05:08:15;4.70;99.90
12901;DHT22;6518;50.930;5.344;2022-12-08T05:10:42;4.70;99.90
12901;DHT22;6518;50.930;5.344;2022-12-08T05:13:09;4.60;99.90
12901;DHT22;6518;50.930;5.344;2022-12-08T05:15:35;4.60;99.90
12901;DHT22;6518;50.930;5.344;2022-12-08T05:18:04;4.60;99.90
12901;DHT22;6518;50.930;5.344;2022-12-08T05:20:32;4.60;99.90
12901;DHT22;6518;50.930;5.344;2022-12-08T05:22:59;4.50;99.90
12901;DHT22;6518;50.930;5.344;2022-12-08T05:25:26;4.60;99.90
12901;DHT22;6518;50.930;5.344;2022-12-08T05:27:53;4.60;99.90
12901;DHT22;6518;50.930;5.344;2022-12-08T05:30:19;4.60;99.90
12901;DHT22;6518;50.930;5.344;2022-12-08T05:32:46;4.70;99.90
12901;DHT22;6518;50.930;5.344;2022-12-08T05:35:14;4.70;99.90
12901;DHT22;6518;50.930;5.344;2022-12-08T05:37:42;4.70;99.90
12901;DHT22;6518;50.930;5.344;2022-12-08T05:40:09;4.70;99.90
12901;DHT22;6518;50.930;5.344;2022-12-08T05:42:36;4.70;99.90
12901;DHT22;6518;50.930;5.344;2022-12-08T05:45:04;4.70;99.90
12901;DHT22;6518;50.930;5.344;2022-12-08T05:47:31;4.70;99.90
12901;DHT22;6518;50.930;5.344;2022-12-08T05:49:58;4.70;99.90
12901;DHT22;6518;50.930;5.344;2022-12-08T05:52:25;4.70;99.90
12901;DHT22;6518;50.930;5.344;2022-12-08T05:54:53;4.70;99.90
12901;DHT22;6518;50.930;5.344;2022-12-08T05:57:20;4.70;99.90
12901;DHT22;6518;50.930;5.344;2022-12-08T05:59:47;4.70;99.90
12901;DHT22;6518;50.930;5.344;2022-12-08T06:02:14;4.70;99.90
12901;DHT22;6518;50.930;5.344;2022-12-08T06:04:41;4.70;99.90
12901;DHT22;6518;50.930;5.344;2022-12-08T06:07:08;4.70;99.90
12901;DHT22;6518;50.930;5.344;2022-12-08T06:09:35;4.70;99.90
12901;DHT22;6518;50.930;5.344;2022-12-08T06:12:03;4.70;99.90
12901;DHT22;6518;50.930;5.344;2022-12-08T06:14:31;4.70;99.90
12901;DHT22;6518;50.930;5.344;2022-12-08T06:16:58;4.70;99.90
12901;DHT22;6518;50.930;5.344;2022-12-08T06:19:24;4.70;99.90
12901;DHT22;6518;50.930;5.344;2022-12-08T06:21:51;4.70;99.90
12901;DHT22;6518;50.930;5.344;2022-12-08T06:24:18;4.70;99.90
12901;DHT22;6518;50.930;5.344;2022-12-08T06:26:45;4.60;99.90
12901;DHT22;6518;50.930;5.344;2022-12-08T06:29:14;4.60;99.90
12901;DHT22;6518;50.930;5.344;2022-12-08T06:31:40;4.60;99.90
12901;DHT22;6518;50.930;5.344;2022-12-08T06:34:07;4.60;99.90
12901;DHT22;6518;50.930;5.344;2022-12-08T06:36:34;4.60;99.90
12901;DHT22;6518;50.930;5.344;2022-12-08T06:39:01;4.60;99.90
12901;DHT22;6518;50.930;5.344;2022-12-08T06:41:28;4.60;99.90
12901;DHT22;6518;50.930;5.344;2022-12-08T06:43:56;4.60;99.90
12901;DHT22;6518;50.930;5.344;2022-12-08T06:46:24;4.70;99.90
12901;DHT22;6518;50.930;5.344;2022-12-08T06:48:51;4.70;99.90
12901;DHT22;6518;50.930;5.344;2022-12-08T06:51:19;4.70;99.90
12901;DHT22;6518;50.930;5.344;2022-12-08T06:53:48;4.60;99.90
12901;DHT22;6518;50.930;5.344;2022-12-08T06:56:15;4.70;99.90
12901;DHT22;6518;50.930;5.344;2022-12-08T06:58:44;4.70;99.90
12901;DHT22;6518;50.930;5.344;2022-12-08T07:01:12;4.70;99.90
12901;DHT22;6518;50.930;5.344;2022-12-08T07:03:40;4.70;99.90
12901;DHT22;6518;50.930;5.344;2022-12-08T07:06:12;4.70;99.90
12901;DHT22;6518;50.930;5.344;2022-12-08T07:08:39;4.70;99.90
12901;DHT22;6518;50.930;5.344;2022-12-08T07:11:07;4.80;99.90
12901;DHT22;6518;50.930;5.344;2022-12-08T07:13:34;4.70;99.90
12901;DHT22;6518;50.930;5.344;2022-12-08T07:16:04;4.70;99.90
12901;DHT22;6518;50.930;5.344;2022-12-08T07:18:31;4.70;99.90
12901;DHT22;6518;50.930;5.344;2022-12-08T07:21:03;4.70;99.90
12901;DHT22;6518;50.930;5.344;2022-12-08T07:23:30;4.70;99.90
12901;DHT22;6518;50.930;5.344;2022-12-08T07:25:59;4.70;99.90
12901;DHT22;6518;50.930;5.344;2022-12-08T07:28:26;4.70;99.90
12901;DHT22;6518;50.930;5.344;2022-12-08T07:30:55;4.70;99.90
12901;DHT22;6518;50.930;5.344;2022-12-08T07:33:22;4.70;99.90
12901;DHT22;6518;50.930;5.344;2022-12-08T07:35:53;4.80;99.90
12901;DHT22;6518;50.930;5.344;2022-12-08T07:38:21;4.80;99.90
12901;DHT22;6518;50.930;5.344;2022-12-08T07:40:48;4.80;99.90
12901;DHT22;6518;50.930;5.344;2022-12-08T07:43:15;4.80;99.90
12901;DHT22;6518;50.930;5.344;2022-12-08T07:45:42;4.80;99.90
12901;DHT22;6518;50.930;5.344;2022-12-08T07:48:09;4.80;99.90
12901;DHT22;6518;50.930;5.344;2022-12-08T07:50:36;4.80;99.90
12901;DHT22;6518;50.930;5.344;2022-12-08T07:53:03;4.80;99.90
12901;DHT22;6518;50.930;5.344;2022-12-08T07:55:31;4.80;99.90
12901;DHT22;6518;50.930;5.344;2022-12-08T07:57:58;4.70;99.90
12901;DHT22;6518;50.930;5.344;2022-12-08T08:00:25;4.70;99.90
12901;DHT22;6518;50.930;5.344;2022-12-08T08:02:52;4.70;99.90
12901;DHT22;6518;50.930;5.344;2022-12-08T08:05:19;4.70;99.90
12901;DHT22;6518;50.930;5.344;2022-12-08T08:07:45;4.70;99.90
12901;DHT22;6518;50.930;5.344;2022-12-08T08:10:13;4.70;99.90
12901;DHT22;6518;50.930;5.344;2022-12-08T08:12:42;4.80;99.90
12901;DHT22;6518;50.930;5.344;2022-12-08T08:15:09;4.80;99.90
12901;DHT22;6518;50.930;5.344;2022-12-08T08:17:36;4.80;99.90
12901;DHT22;6518;50.930;5.344;2022-12-08T08:20:04;4.80;99.90
12901;DHT22;6518;50.930;5.344;2022-12-08T08:22:32;4.80;99.90
12901;DHT22;6518;50.930;5.344;2022-12-08T08:24:59;4.80;99.90
12901;DHT22;6518;50.930;5.344;2022-12-08T08:27:26;4.80;99.90
12901;DHT22;6518;50.930;5.344;2022-12-08T08:29:54;4.90;99.90
12901;DHT22;6518;50.930;5.344;2022-12-08T08:32:21;4.90;99.90
12901;DHT22;6518;50.930;5.344;2022-12-08T08:34:47;4.90;99.90
12901;DHT22;6518;50.930;5.344;2022-12-08T08:37:14;4.90;99.90
12901;DHT22;6518;50.930;5.344;2022-12-08T08:39:41;4.90;99.90
12901;DHT22;6518;50.930;5.344;2022-12-08T08:42:08;4.90;99.90
12901;DHT22;6518;50.930;5.344;2022-12-08T08:44:35;4.90;99.90
12901;DHT22;6518;50.930;5.344;2022-12-08T08:47:05;4.90;99.90
12901;DHT22;6518;50.930;5.344;2022-12-08T08:49:31;4.90;99.90
12901;DHT22;6518;50.930;5.344;2022-12-08T08:51:58;4.90;99.90
12901;DHT22;6518;50.930;5.344;2022-12-08T08:54:27;4.90;99.90
12901;DHT22;6518;50.930;5.344;2022-12-08T08:56:55;4.90;99.90
12901;DHT22;6518;50.930;5.344;2022-12-08T08:59:22;4.90;99.90
12901;DHT22;6518;50.930;5.344;2022-12-08T09:01:49;4.90;99.90
12901;DHT22;6518;50.930;5.344;2022-12-08T09:04:19;5.00;99.90
12901;DHT22;6518;50.930;5.344;2022-12-08T09:06:46;5.00;99.90
12901;DHT22;6518;50.930;5.344;2022-12-08T09:09:14;5.00;99.90
12901;DHT22;6518;50.930;5.344;2022-12-08T09:11:41;5.00;99.90
12901;DHT22;6518;50.930;5.344;2022-12-08T09:14:10;5.00;99.90
12901;DHT22;6518;50.930;5.344;2022-12-08T09:16:37;5.00;99.90
12901;DHT22;6518;50.930;5.344;2022-12-08T09:19:04;5.00;99.90
12901;DHT22;6518;50.930;5.344;2022-12-08T09:21:33;5.10;99.90
12901;DHT22;6518;50.930;5.344;2022-12-08T09:23:59;5.10;99.90
12901;DHT22;6518;50.930;5.344;2022-12-08T09:26:27;5.10;99.90
12901;DHT22;6518;50.930;5.344;2022-12-08T09:28:55;5.10;99.90
12901;DHT22;6518;50.930;5.344;2022-12-08T09:31:23;5.20;99.90
12901;DHT22;6518;50.930;5.344;2022-12-08T09:33:50;5.20;99.90
12901;DHT22;6518;50.930;5.344;2022-12-08T09:36:17;5.30;99.90
12901;DHT22;6518;50.930;5.344;2022-12-08T09:38:45;5.30;99.90
12901;DHT22;6518;50.930;5.344;2022-12-08T09:41:16;5.30;99.90
12901;DHT22;6518;50.930;5.344;2022-12-08T09:43:55;5.30;99.90
12901;DHT22;6518;50.930;5.344;2022-12-08T09:46:25;5.40;99.90
12901;DHT22;6518;50.930;5.344;2022-12-08T09:48:56;5.40;99.90
12901;DHT22;6518;50.930;5.344;2022-12-08T09:51:25;5.40;99.90
12901;DHT22;6518;50.930;5.344;2022-12-08T09:53:57;5.40;99.90
12901;DHT22;6518;50.930;5.344;2022-12-08T09:56:28;5.40;99.90
12901;DHT22;6518;50.930;5.344;2022-12-08T09:59:00;5.50;99.90
12901;DHT22;6518;50.930;5.344;2022-12-08T10:01:30;5.50;99.90
12901;DHT22;6518;50.930;5.344;2022-12-08T10:03:59;5.50;99.90
12901;DHT22;6518;50.930;5.344;2022-12-08T10:09:23;5.50;99.90
12901;DHT22;6518;50.930;5.344;2022-12-08T10:11:58;5.60;99.90
12901;DHT22;6518;50.930;5.344;2022-12-08T10:14:32;5.60;99.90
12901;DHT22;6518;50.930;5.344;2022-12-08T10:17:04;5.50;99.90
12901;DHT22;6518;50.930;5.344;2022-12-08T10:19:35;5.60;99.90
12901;DHT22;6518;50.930;5.344;2022-12-08T10:22:11;5.60;99.90
12901;DHT22;6518;50.930;5.344;2022-12-08T10:24:46;5.50;99.90
12901;DHT22;6518;50.930;5.344;2022-12-08T10:27:16;5.50;99.90
12901;DHT22;6518;50.930;5.344;2022-12-08T10:29:43;5.50;99.90
12901;DHT22;6518;50.930;5.344;2022-12-08T10:32:18;5.40;99.90
12901;DHT22;6518;50.930;5.344;2022-12-08T10:35:04;5.40;99.90
12901;DHT22;6518;50.930;5.344;2022-12-08T10:37:32;5.50;99.90
12901;DHT22;6518;50.930;5.344;2022-12-08T10:40:10;5.40;99.90
12901;DHT22;6518;50.930;5.344;2022-12-08T10:42:39;5.60;99.90
12901;DHT22;6518;50.930;5.344;2022-12-08T10:45:23;5.40;99.90
12901;DHT22;6518;50.930;5.344;2022-12-08T10:47:57;5.40;99.90
12901;DHT22;6518;50.930;5.344;2022-12-08T10:50:30;5.40;99.90
12901;DHT22;6518;50.930;5.344;2022-12-08T10:52:58;5.30;99.90
12901;DHT22;6518;50.930;5.344;2022-12-08T10:55:28;5.30;99.90
12901;DHT22;6518;50.930;5.344;2022-12-08T10:57:55;5.30;99.90
12901;DHT22;6518;50.930;5.344;2022-12-08T11:00:24;5.30;99.90
12901;DHT22;6518;50.930;5.344;2022-12-08T11:02:59;5.30;99.90
12901;DHT22;6518;50.930;5.344;2022-12-08T11:05:29;5.40;99.90
12901;DHT22;6518;50.930;5.344;2022-12-08T11:07:57;5.30;99.90
12901;DHT22;6518;50.930;5.344;2022-12-08T11:10:36;5.40;99.90
12901;DHT22;6518;50.930;5.344;2022-12-08T11:18:26;5.40;99.90
12901;DHT22;6518;50.930;5.344;2022-12-08T11:23:27;5.50;99.90
12901;DHT22;6518;50.930;5.344;2022-12-08T11:26:00;5.60;99.90
12901;DHT22;6518;50.930;5.344;2022-12-08T11:28:28;5.60;99.90
12901;DHT22;6518;50.930;5.344;2022-12-08T11:31:03;5.60;99.90
12901;DHT22;6518;50.930;5.344;2022-12-08T11:33:30;5.70;99.90
12901;DHT22;6518;50.930;5.344;2022-12-08T11:36:01;5.70;99.90
12901;DHT22;6518;50.930;5.344;2022-12-08T11:38:29;5.80;99.90
12901;DHT22;6518;50.930;5.344;2022-12-08T11:41:02;5.80;99.90
12901;DHT22;6518;50.930;5.344;2022-12-08T11:43:38;5.80;99.90
12901;DHT22;6518;50.930;5.344;2022-12-08T11:46:14;5.80;99.90
12901;DHT22;6518;50.930;5.344;2022-12-08T11:48:46;5.90;99.90
12901;DHT22;6518;50.930;5.344;2022-12-08T11:51:18;5.90;99.90
12901;DHT22;6518;50.930;5.344;2022-12-08T11:53:52;5.90;99.90
12901;DHT22;6518;50.930;5.344;2022-12-08T11:56:31;5.90;99.90
12901;DHT22;6518;50.930;5.344;2022-12-08T11:59:01;5.90;99.90
12901;DHT22;6518;50.930;5.344;2022-12-08T12:01:29;5.90;99.90
12901;DHT22;6518;50.930;5.344;2022-12-08T12:04:04;5.90;99.90
12901;DHT22;6518;50.930;5.344;2022-12-08T12:06:53;6.00;99.90
12901;DHT22;6518;50.930;5.344;2022-12-08T12:09:32;6.00;99.90
12901;DHT22;6518;50.930;5.344;2022-12-08T12:12:08;6.00;99.90
12901;DHT22;6518;50.930;5.344;2022-12-08T12:17:42;6.20;99.90
12901;DHT22;6518;50.930;5.344;2022-12-08T12:20:14;6.30;99.90
12901;DHT22;6518;50.930;5.344;2022-12-08T12:22:44;6.40;99.90
12901;DHT22;6518;50.930;5.344;2022-12-08T12:25:17;6.40;99.90
12901;DHT22;6518;50.930;5.344;2022-12-08T12:27:46;6.40;99.50
12901;DHT22;6518;50.930;5.344;2022-12-08T12:30:20;6.40;99.90
12901;DHT22;6518;50.930;5.344;2022-12-08T12:32:51;6.40;99.90
12901;DHT22;6518;50.930;5.344;2022-12-08T12:35:24;6.30;98.10
12901;DHT22;6518;50.930;5.344;2022-12-08T12:37:55;6.20;97.20
12901;DHT22;6518;50.930;5.344;2022-12-08T12:40:25;6.20;97.40
12901;DHT22;6518;50.930;5.344;2022-12-08T12:43:19;6.10;97.40
12901;DHT22;6518;50.930;5.344;2022-12-08T12:45:49;6.00;97.80
12901;DHT22;6518;50.930;5.344;2022-12-08T12:48:37;6.00;99.10
12901;DHT22;6518;50.930;5.344;2022-12-08T12:51:41;5.90;98.60
12901;DHT22;6518;50.930;5.344;2022-12-08T12:54:19;5.90;98.20
12901;DHT22;6518;50.930;5.344;2022-12-08T12:56:50;5.80;99.20
12901;DHT22;6518;50.930;5.344;2022-12-08T13:02:15;5.80;98.90
12901;DHT22;6518;50.930;5.344;2022-12-08T13:04:51;5.80;99.60
12901;DHT22;6518;50.930;5.344;2022-12-08T13:07:21;5.90;98.90
12901;DHT22;6518;50.930;5.344;2022-12-08T13:09:55;5.80;98.30
12901;DHT22;6518;50.930;5.344;2022-12-08T13:12:24;5.80;97.60
12901;DHT22;6518;50.930;5.344;2022-12-08T13:14:57;5.80;98.10
12901;DHT22;6518;50.930;5.344;2022-12-08T13:17:28;5.80;99.50
12901;DHT22;6518;50.930;5.344;2022-12-08T13:19:58;5.80;98.40
12901;DHT22;6518;50.930;5.344;2022-12-08T13:22:46;5.80;98.60
12901;DHT22;6518;50.930;5.344;2022-12-08T13:25:45;5.80;99.10
12901;DHT22;6518;50.930;5.344;2022-12-08T13:28:18;5.80;99.40
12901;DHT22;6518;50.930;5.344;2022-12-08T13:30:46;5.80;99.30
12901;DHT22;6518;50.930;5.344;2022-12-08T13:33:17;5.80;98.00
12901;DHT22;6518;50.930;5.344;2022-12-08T13:38:37;5.80;97.30
12901;DHT22;6518;50.930;5.344;2022-12-08T13:41:11;5.90;97.40
12901;DHT22;6518;50.930;5.344;2022-12-08T13:43:43;5.90;98.00
12901;DHT22;6518;50.930;5.344;2022-12-08T13:46:14;5.90;96.80
12901;DHT22;6518;50.930;5.344;2022-12-08T13:48:47;5.90;96.30
12901;DHT22;6518;50.930;5.344;2022-12-08T13:51:18;5.90;96.00
12901;DHT22;6518;50.930;5.344;2022-12-08T13:53:55;5.90;95.10
12901;DHT22;6518;50.930;5.344;2022-12-08T13:56:25;5.80;95.40
12901;DHT22;6518;50.930;5.344;2022-12-08T13:59:06;5.80;95.50
12901;DHT22;6518;50.930;5.344;2022-12-08T14:01:40;5.80;95.90
12901;DHT22;6518;50.930;5.344;2022-12-08T14:04:14;5.80;96.30
12901;DHT22;6518;50.930;5.344;2022-12-08T14:06:44;5.80;94.20
12901;DHT22;6518;50.930;5.344;2022-12-08T14:09:16;5.80;94.40
12901;DHT22;6518;50.930;5.344;2022-12-08T14:11:45;5.70;95.00
12901;DHT22;6518;50.930;5.344;2022-12-08T14:14:17;5.70;95.80
12901;DHT22;6518;50.930;5.344;2022-12-08T14:16:49;5.70;95.80
12901;DHT22;6518;50.930;5.344;2022-12-08T14:19:22;5.70;95.50
12901;DHT22;6518;50.930;5.344;2022-12-08T14:21:57;5.70;95.30
12901;DHT22;6518;50.930;5.344;2022-12-08T14:24:28;5.60;95.50
12901;DHT22;6518;50.930;5.344;2022-12-08T14:26:58;5.70;95.50
12901;DHT22;6518;50.930;5.344;2022-12-08T14:29:40;5.70;96.30
12901;DHT22;6518;50.930;5.344;2022-12-08T14:32:20;5.60;95.80
12901;DHT22;6518;50.930;5.344;2022-12-08T14:34:51;5.60;95.30
12901;DHT22;6518;50.930;5.344;2022-12-08T14:37:18;5.60;96.10
12901;DHT22;6518;50.930;5.344;2022-12-08T14:39:47;5.50;95.90
12901;DHT22;6518;50.930;5.344;2022-12-08T14:42:20;5.50;96.60
12901;DHT22;6518;50.930;5.344;2022-12-08T14:44:50;5.50;96.80
12901;DHT22;6518;50.930;5.344;2022-12-08T14:47:21;5.50;97.10
12901;DHT22;6518;50.930;5.344;2022-12-08T14:49:48;5.50;96.70
12901;DHT22;6518;50.930;5.344;2022-12-08T14:52:14;5.40;97.10
12901;DHT22;6518;50.930;5.344;2022-12-08T14:54:41;5.40;97.60
12901;DHT22;6518;50.930;5.344;2022-12-08T14:57:13;5.40;97.60
12901;DHT22;6518;50.930;5.344;2022-12-08T14:59:41;5.40;97.60
12901;DHT22;6518;50.930;5.344;2022-12-08T15:02:18;5.40;98.30
12901;DHT22;6518;50.930;5.344;2022-12-08T15:04:52;5.40;98.10
12901;DHT22;6518;50.930;5.344;2022-12-08T15:07:21;5.30;98.10
12901;DHT22;6518;50.930;5.344;2022-12-08T15:10:06;5.40;98.40
12901;DHT22;6518;50.930;5.344;2022-12-08T15:12:35;5.30;98.30
12901;DHT22;6518;50.930;5.344;2022-12-08T15:15:14;5.30;99.00
12901;DHT22;6518;50.930;5.344;2022-12-08T15:17:43;5.30;98.70
12901;DHT22;6518;50.930;5.344;2022-12-08T15:20:26;5.30;98.70
12901;DHT22;6518;50.930;5.344;2022-12-08T15:22:53;5.30;99.00
12901;DHT22;6518;50.930;5.344;2022-12-08T15:25:21;5.30;98.80
12901;DHT22;6518;50.930;5.344;2022-12-08T15:27:50;5.30;98.50
12901;DHT22;6518;50.930;5.344;2022-12-08T15:30:19;5.20;98.70
12901;DHT22;6518;50.930;5.344;2022-12-08T15:32:46;5.20;99.20
12901;DHT22;6518;50.930;5.344;2022-12-08T15:35:17;5.10;98.30
12901;DHT22;6518;50.930;5.344;2022-12-08T15:37:44;5.10;98.60
12901;DHT22;6518;50.930;5.344;2022-12-08T15:40:16;5.10;99.00
12901;DHT22;6518;50.930;5.344;2022-12-08T15:42:43;5.10;98.70
12901;DHT22;6518;50.930;5.344;2022-12-08T15:45:12;5.10;99.20
12901;DHT22;6518;50.930;5.344;2022-12-08T15:47:40;5.00;99.30
12901;DHT22;6518;50.930;5.344;2022-12-08T15:50:13;5.00;99.60
12901;DHT22;6518;50.930;5.344;2022-12-08T15:52:41;5.00;99.90
12901;DHT22;6518;50.930;5.344;2022-12-08T15:55:11;5.00;99.90
12901;DHT22;6518;50.930;5.344;2022-12-08T15:57:39;5.00;99.90
12901;DHT22;6518;50.930;5.344;2022-12-08T16:00:25;5.00;99.90
12901;DHT22;6518;50.930;5.344;2022-12-08T16:02:53;5.00;99.90
12901;DHT22;6518;50.930;5.344;2022-12-08T16:05:20;4.90;99.90
12901;DHT22;6518;50.930;5.344;2022-12-08T16:07:47;4.90;99.90
12901;DHT22;6518;50.930;5.344;2022-12-08T16:10:15;4.90;99.90
12901;DHT22;6518;50.930;5.344;2022-12-08T16:12:43;4.90;99.90
12901;DHT22;6518;50.930;5.344;2022-12-08T16:15:30;4.90;99.90
12901;DHT22;6518;50.930;5.344;2022-12-08T16:17:59;4.90;99.90
12901;DHT22;6518;50.930;5.344;2022-12-08T16:20:26;4.90;99.90
12901;DHT22;6518;50.930;5.344;2022-12-08T16:22:52;4.80;99.90
12901;DHT22;6518;50.930;5.344;2022-12-08T16:25:20;4.90;99.90
12901;DHT22;6518;50.930;5.344;2022-12-08T16:27:48;4.80;99.90
12901;DHT22;6518;50.930;5.344;2022-12-08T16:30:17;4.80;99.90
12901;DHT22;6518;50.930;5.344;2022-12-08T16:32:45;4.80;99.90
12901;DHT22;6518;50.930;5.344;2022-12-08T16:35:12;4.70;99.90
12901;DHT22;6518;50.930;5.344;2022-12-08T16:37:39;4.70;99.90
12901;DHT22;6518;50.930;5.344;2022-12-08T16:40:10;4.70;99.90
12901;DHT22;6518;50.930;5.344;2022-12-08T16:42:38;4.60;99.90
12901;DHT22;6518;50.930;5.344;2022-12-08T16:45:13;4.60;99.90
12901;DHT22;6518;50.930;5.344;2022-12-08T16:47:43;4.50;99.90